Time;durP1;ratioP1;P1;durP2;ratioP2;P2;SDS_P1;SDS_P2;PMS_P1;PMS_P2;Temp;Humidity;BMP_temperature;BMP_pressure;BME280_temperature;BME280_humidity;BME280_pressure;Samples;Min_cycle;Max_cycle;Signal;HPM_P1;HPM_P2
2021/08/07 00:00:08;;;;;;;0.70;0.50;;;18.30;99.90;;;;;;5024326;28;20258;-73
2021/08/07 00:02:34;;;;;;;0.90;0.70;;;18.30;99.90;;;;;;5011650;28;20427;-73
2021/08/07 00:05:00;;;;;;;0.70;0.60;;;18.30;99.90;;;;;;5021449;28;20522;-74
2021/08/07 00:07:27;;;;;;;0.70;0.60;;;18.30;99.90;;;;;;5014764;28;20179;-72
2021/08/07 00:09:53;;;;;;;0.73;0.57;;;18.30;99.90;;;;;;5022159;28;20175;-71
2021/08/07 00:12:19;;;;;;;0.80;0.60;;;18.30;99.90;;;;;;5023589;28;20502;-73
2021/08/07 00:14:45;;;;;;;0.70;0.50;;;18.30;99.90;;;;;;5024038;28;20544;-74
2021/08/07 00:17:11;;;;;;;0.70;0.57;;;18.30;99.90;;;;;;5031767;28;20171;-74
2021/08/07 00:19:37;;;;;;;0.70;0.50;;;18.20;99.90;;;;;;5030290;28;20199;-72
2021/08/07 00:22:03;;;;;;;1.00;0.90;;;18.20;99.90;;;;;;5025661;28;20451;-74
2021/08/07 00:24:29;;;;;;;0.80;0.60;;;18.20;99.90;;;;;;5012580;28;20188;-75
2021/08/07 00:26:55;;;;;;;0.80;0.77;;;18.30;99.90;;;;;;5012116;28;20423;-73
2021/08/07 00:29:20;;;;;;;0.80;0.60;;;18.20;99.90;;;;;;5012362;28;20657;-74
2021/08/07 00:31:46;;;;;;;0.70;0.50;;;18.20;99.90;;;;;;5014655;28;20218;-74
2021/08/07 00:34:12;;;;;;;0.70;0.50;;;18.30;99.90;;;;;;5025307;28;20743;-74
2021/08/07 00:36:38;;;;;;;1.50;1.37;;;18.20;99.90;;;;;;5012250;28;20183;-75
2021/08/07 00:39:03;;;;;;;0.80;0.60;;;18.20;99.90;;;;;;5013399;28;20233;-74
2021/08/07 00:41:29;;;;;;;0.80;0.60;;;18.20;99.90;;;;;;5018495;28;20176;-74
2021/08/07 00:43:54;;;;;;;0.77;0.70;;;18.20;99.90;;;;;;5017816;28;20184;-74
2021/08/07 00:46:20;;;;;;;1.00;0.60;;;18.20;99.90;;;;;;5011311;28;20222;-74
2021/08/07 00:48:45;;;;;;;0.70;0.50;;;18.30;99.90;;;;;;5029517;28;20210;-74
2021/08/07 00:51:11;;;;;;;0.90;0.80;;;18.20;99.90;;;;;;5011488;28;20203;-74
2021/08/07 00:53:37;;;;;;;0.80;0.70;;;18.10;99.90;;;;;;5022704;28;20675;-73
2021/08/07 00:56:03;;;;;;;0.80;0.73;;;18.10;99.90;;;;;;5020764;28;22262;-72
2021/08/07 00:58:29;;;;;;;0.90;0.73;;;18.10;99.90;;;;;;5027986;28;20615;-74
2021/08/07 01:00:54;;;;;;;0.70;0.50;;;18.10;99.90;;;;;;5021760;28;20430;-72
2021/08/07 01:03:45;;;;;;;0.80;0.70;;;18.10;99.90;;;;;;5017994;28;20215;-73
2021/08/07 01:06:24;;;;;;;0.80;0.80;;;18.10;99.90;;;;;;5023418;28;20203;-73
2021/08/07 01:09:17;;;;;;;0.80;0.60;;;18.10;99.90;;;;;;5012087;28;20527;-73
2021/08/07 01:11:53;;;;;;;0.80;0.60;;;18.10;99.90;;;;;;5021074;28;20864;-73
2021/08/07 01:14:30;;;;;;;0.70;0.50;;;18.10;99.90;;;;;;5016279;28;20441;-73
2021/08/07 01:16:56;;;;;;;0.70;0.60;;;18.00;99.90;;;;;;5025940;28;20429;-73
2021/08/07 01:19:27;;;;;;;0.70;0.50;;;18.00;99.90;;;;;;5006835;28;20477;-73
2021/08/07 01:22:00;;;;;;;0.80;0.60;;;18.00;99.90;;;;;;5019755;28;20579;-73
2021/08/07 01:24:41;;;;;;;0.70;0.50;;;18.00;99.90;;;;;;5024433;28;20510;-72
2021/08/07 01:27:32;;;;;;;0.70;0.50;;;18.00;99.90;;;;;;5018629;28;20437;-72
2021/08/07 01:29:59;;;;;;;0.87;0.70;;;17.90;99.90;;;;;;5011998;28;20519;-72
2021/08/07 01:32:32;;;;;;;0.70;0.50;;;17.90;99.90;;;;;;5017102;28;20473;-72
2021/08/07 01:34:59;;;;;;;0.80;0.60;;;17.80;99.90;;;;;;5029509;28;20509;-72
2021/08/07 01:37:25;;;;;;;0.80;0.60;;;17.80;99.90;;;;;;5025726;28;20426;-73
2021/08/07 01:39:55;;;;;;;0.70;0.50;;;17.80;99.90;;;;;;5009306;28;20426;-74
2021/08/07 01:42:22;;;;;;;0.70;0.50;;;17.70;99.90;;;;;;5015809;28;20183;-72
2021/08/07 01:44:47;;;;;;;0.70;0.70;;;17.70;99.90;;;;;;5019729;28;20440;-73
2021/08/07 01:47:28;;;;;;;0.70;0.50;;;17.70;99.90;;;;;;5023004;28;20846;-73
2021/08/07 01:50:12;;;;;;;0.70;0.57;;;17.70;99.90;;;;;;5016142;28;20207;-72
2021/08/07 01:52:43;;;;;;;0.70;0.50;;;17.70;99.90;;;;;;5024204;28;20430;-73
2021/08/07 01:55:20;;;;;;;0.70;0.60;;;17.70;99.90;;;;;;5019004;28;20454;-74
2021/08/07 01:57:55;;;;;;;0.80;0.70;;;17.60;99.90;;;;;;5024587;28;20444;-73
2021/08/07 02:00:22;;;;;;;0.80;0.70;;;17.60;99.90;;;;;;5029437;28;20422;-74
2021/08/07 02:02:49;;;;;;;0.97;0.87;;;17.60;99.90;;;;;;5026761;28;20436;-74
2021/08/07 02:05:18;;;;;;;0.70;0.50;;;17.50;99.90;;;;;;5016162;28;20466;-73
2021/08/07 02:07:46;;;;;;;0.83;0.70;;;17.50;99.90;;;;;;5025148;28;20425;-72
2021/08/07 02:10:12;;;;;;;0.70;0.50;;;17.50;99.90;;;;;;5032278;28;20497;-73
2021/08/07 02:12:37;;;;;;;0.80;0.60;;;17.50;99.90;;;;;;5033158;28;20434;-72
2021/08/07 02:15:04;;;;;;;0.70;0.50;;;17.40;99.90;;;;;;5029491;28;20212;-73
2021/08/07 02:17:30;;;;;;;0.70;0.50;;;17.30;99.90;;;;;;5028215;28;20525;-73
2021/08/07 02:19:56;;;;;;;1.13;1.03;;;17.30;99.90;;;;;;5022144;28;20521;-72
2021/08/07 02:22:22;;;;;;;0.70;0.60;;;17.30;99.90;;;;;;5019615;28;20505;-74
2021/08/07 02:24:48;;;;;;;0.80;0.70;;;17.40;99.90;;;;;;5019477;28;20607;-74
2021/08/07 02:27:14;;;;;;;0.70;0.60;;;17.30;99.90;;;;;;5025633;28;20171;-73
2021/08/07 02:29:41;;;;;;;1.10;0.80;;;17.30;99.90;;;;;;5025894;28;20313;-74
2021/08/07 02:32:08;;;;;;;0.90;0.70;;;17.20;99.90;;;;;;5009075;28;20435;-74
2021/08/07 02:34:34;;;;;;;0.70;0.50;;;17.20;99.90;;;;;;5020863;28;20461;-73
2021/08/07 02:37:01;;;;;;;0.80;0.60;;;17.10;99.90;;;;;;5018588;28;20435;-74
2021/08/07 02:39:27;;;;;;;1.43;1.33;;;17.00;99.90;;;;;;5029845;28;20441;-71
2021/08/07 02:41:55;;;;;;;0.70;0.50;;;16.90;99.90;;;;;;5014824;28;20484;-74
2021/08/07 02:44:21;;;;;;;0.70;0.50;;;17.00;99.90;;;;;;5030519;28;20458;-74
2021/08/07 02:46:47;;;;;;;0.90;0.90;;;16.90;99.90;;;;;;5021014;28;20608;-74
2021/08/07 02:49:12;;;;;;;0.80;0.60;;;16.90;99.90;;;;;;5023591;28;21011;-74
2021/08/07 02:51:40;;;;;;;0.87;0.80;;;16.90;99.90;;;;;;5028825;28;20541;-73
2021/08/07 02:54:06;;;;;;;0.70;0.50;;;16.80;99.90;;;;;;5031287;28;20182;-73
2021/08/07 02:56:31;;;;;;;1.13;1.03;;;16.80;99.90;;;;;;5032185;28;20462;-72
2021/08/07 02:58:57;;;;;;;0.80;0.60;;;16.80;99.90;;;;;;5028322;28;20584;-73
2021/08/07 03:01:22;;;;;;;0.70;0.50;;;16.80;99.90;;;;;;5023417;28;20206;-74
2021/08/07 03:03:48;;;;;;;1.13;0.80;;;16.60;99.90;;;;;;5018222;28;20179;-74
2021/08/07 03:06:13;;;;;;;0.80;0.80;;;16.70;99.90;;;;;;5027921;28;20277;-74
2021/08/07 03:08:40;;;;;;;0.70;0.60;;;16.70;99.90;;;;;;5030880;28;20677;-74
2021/08/07 03:11:05;;;;;;;0.70;0.50;;;16.70;99.90;;;;;;5033486;28;20183;-74
2021/08/07 03:13:31;;;;;;;0.70;0.60;;;16.60;99.90;;;;;;5032383;28;20438;-74
2021/08/07 03:15:56;;;;;;;0.70;0.50;;;16.60;99.90;;;;;;5026573;28;20672;-73
2021/08/07 03:18:22;;;;;;;0.70;0.50;;;16.60;99.90;;;;;;5025747;28;20183;-73
2021/08/07 03:20:47;;;;;;;0.70;0.50;;;16.50;99.90;;;;;;5021779;28;20191;-74
2021/08/07 03:23:13;;;;;;;0.80;0.70;;;16.50;99.90;;;;;;5029726;28;20186;-73
2021/08/07 03:25:38;;;;;;;0.80;0.70;;;16.40;99.90;;;;;;5013691;28;20204;-72
2021/08/07 03:28:05;;;;;;;0.80;0.70;;;16.40;99.90;;;;;;5018883;28;20187;-74
2021/08/07 03:30:31;;;;;;;0.80;0.60;;;16.40;99.90;;;;;;5032009;28;20591;-73
2021/08/07 03:32:57;;;;;;;0.83;0.83;;;16.40;99.90;;;;;;5008076;28;20434;-72
2021/08/07 03:35:22;;;;;;;0.70;0.50;;;16.40;99.90;;;;;;5026734;28;20540;-73
2021/08/07 03:37:48;;;;;;;0.70;0.60;;;16.20;99.90;;;;;;5015186;28;20180;-74
2021/08/07 03:40:15;;;;;;;0.70;0.50;;;16.20;99.90;;;;;;5015981;28;20186;-74
2021/08/07 03:42:41;;;;;;;0.70;0.50;;;16.20;99.90;;;;;;5022668;28;20254;-73
2021/08/07 03:45:09;;;;;;;1.07;0.97;;;16.20;99.90;;;;;;5023989;28;20549;-72
2021/08/07 03:47:50;;;;;;;0.70;0.50;;;16.20;99.90;;;;;;5026417;28;20449;-71
2021/08/07 03:50:16;;;;;;;0.70;0.50;;;16.20;99.90;;;;;;5026306;28;20430;-74
2021/08/07 03:52:42;;;;;;;0.70;0.50;;;16.20;99.90;;;;;;5024148;28;20427;-74
2021/08/07 03:55:08;;;;;;;0.80;0.50;;;16.30;99.90;;;;;;5023515;28;20611;-72
2021/08/07 03:57:46;;;;;;;0.70;0.50;;;16.30;99.90;;;;;;5025539;28;20202;-74
2021/08/07 04:00:12;;;;;;;0.70;0.50;;;16.30;99.90;;;;;;5016156;28;20422;-71
2021/08/07 04:02:37;;;;;;;0.70;0.50;;;16.40;99.90;;;;;;5013248;28;20555;-73
2021/08/07 04:05:03;;;;;;;0.70;0.50;;;16.50;99.90;;;;;;5030473;28;20203;-74
2021/08/07 04:07:29;;;;;;;4.30;1.13;;;16.50;99.90;;;;;;5030293;28;20259;-73
2021/08/07 04:09:54;;;;;;;0.70;0.50;;;16.50;99.90;;;;;;5030611;28;20168;-74
2021/08/07 04:12:20;;;;;;;0.80;0.70;;;16.50;99.90;;;;;;5009385;28;20549;-73
2021/08/07 04:14:45;;;;;;;0.70;0.50;;;16.40;99.90;;;;;;5011677;28;20203;-74
2021/08/07 04:17:11;;;;;;;0.70;0.50;;;16.50;99.90;;;;;;4987249;28;20168;-73
2021/08/07 04:19:36;;;;;;;1.00;0.90;;;16.50;99.90;;;;;;5010848;28;20160;-73
2021/08/07 04:22:02;;;;;;;0.70;0.50;;;16.50;99.90;;;;;;4992777;28;20200;-74
2021/08/07 04:24:27;;;;;;;0.70;0.50;;;16.40;99.90;;;;;;4993007;28;20207;-73
2021/08/07 04:26:53;;;;;;;0.70;0.50;;;16.50;99.90;;;;;;4992670;28;20635;-73
2021/08/07 04:29:18;;;;;;;0.70;0.50;;;16.40;99.90;;;;;;4993078;28;20260;-74
2021/08/07 04:31:44;;;;;;;0.70;0.50;;;16.50;99.90;;;;;;4992818;28;20192;-74
2021/08/07 04:34:09;;;;;;;0.70;0.60;;;16.50;99.90;;;;;;4992867;28;20205;-73
2021/08/07 04:36:35;;;;;;;0.70;0.50;;;16.50;99.90;;;;;;5005938;28;20255;-73
2021/08/07 04:39:01;;;;;;;0.90;0.67;;;16.50;99.90;;;;;;4993624;28;20172;-72
2021/08/07 04:41:26;;;;;;;0.70;0.60;;;16.50;99.90;;;;;;4998395;28;20541;-74
2021/08/07 04:43:52;;;;;;;0.70;0.50;;;16.60;99.90;;;;;;5008003;28;20661;-74
2021/08/07 04:46:17;;;;;;;1.80;0.70;;;16.60;99.90;;;;;;4998863;28;20211;-74
2021/08/07 04:48:43;;;;;;;0.80;0.70;;;16.70;99.90;;;;;;4992790;28;20215;-73
2021/08/07 04:51:08;;;;;;;0.90;0.60;;;16.70;99.90;;;;;;4992830;28;20681;-74
2021/08/07 04:53:34;;;;;;;0.73;0.60;;;16.70;99.90;;;;;;4992698;28;20169;-72
2021/08/07 04:55:59;;;;;;;0.70;0.50;;;16.80;99.90;;;;;;4999727;28;20203;-72
2021/08/07 04:58:25;;;;;;;1.00;0.57;;;16.80;99.90;;;;;;5009316;28;20184;-73
2021/08/07 05:00:50;;;;;;;0.70;0.70;;;16.80;99.90;;;;;;4994991;28;20177;-74
2021/08/07 05:03:16;;;;;;;0.80;0.70;;;16.80;99.90;;;;;;4992460;28;20179;-73
2021/08/07 05:05:41;;;;;;;0.70;0.50;;;16.90;99.90;;;;;;4989172;28;20192;-73
2021/08/07 05:08:07;;;;;;;1.17;1.07;;;16.90;99.90;;;;;;5003598;28;20185;-74
2021/08/07 05:10:32;;;;;;;0.90;0.60;;;16.90;99.90;;;;;;5003090;28;20172;-74
2021/08/07 05:12:58;;;;;;;0.70;0.60;;;17.00;99.90;;;;;;5009579;28;20181;-74
2021/08/07 05:15:23;;;;;;;0.83;0.60;;;17.00;99.90;;;;;;5025467;28;20734;-74
2021/08/07 05:17:50;;;;;;;0.70;0.57;;;17.10;99.90;;;;;;5026002;28;20180;-73
2021/08/07 05:20:15;;;;;;;0.80;0.70;;;17.10;99.90;;;;;;5021062;28;20183;-72
2021/08/07 05:22:41;;;;;;;0.70;0.50;;;17.10;99.90;;;;;;5019014;28;20460;-74
2021/08/07 05:25:08;;;;;;;0.70;0.50;;;17.10;99.90;;;;;;5009376;28;20206;-74
2021/08/07 05:27:34;;;;;;;0.70;0.50;;;17.20;99.90;;;;;;5026120;28;20656;-72
2021/08/07 05:29:59;;;;;;;1.57;1.03;;;17.20;99.90;;;;;;5012868;28;20467;-74
2021/08/07 05:32:25;;;;;;;0.83;0.60;;;17.30;99.90;;;;;;5016417;28;20202;-74
2021/08/07 05:34:51;;;;;;;0.70;0.50;;;17.30;99.90;;;;;;5007516;28;20672;-74
2021/08/07 05:37:16;;;;;;;0.80;0.60;;;17.30;99.90;;;;;;5024646;28;20215;-72
2021/08/07 05:39:42;;;;;;;0.70;0.60;;;17.40;99.90;;;;;;5012986;28;20199;-73
2021/08/07 05:42:07;;;;;;;0.70;0.50;;;17.40;99.90;;;;;;5022792;28;20223;-74
2021/08/07 05:44:33;;;;;;;0.90;0.80;;;17.40;99.90;;;;;;5025946;28;20305;-74
2021/08/07 05:46:58;;;;;;;0.70;0.50;;;17.50;99.90;;;;;;5026578;28;20226;-72
2021/08/07 05:49:24;;;;;;;0.70;0.60;;;17.60;99.90;;;;;;5028402;28;20556;-74
2021/08/07 05:51:49;;;;;;;1.00;0.90;;;17.50;99.90;;;;;;5028040;28;20180;-74
2021/08/07 05:54:16;;;;;;;0.70;0.50;;;17.60;99.90;;;;;;5016006;28;20257;-73
2021/08/07 05:56:41;;;;;;;0.80;0.70;;;17.60;99.90;;;;;;5026778;28;20183;-74
2021/08/07 05:59:07;;;;;;;0.70;0.60;;;17.60;99.90;;;;;;5022053;28;20437;-73
2021/08/07 06:01:32;;;;;;;0.80;0.60;;;17.70;99.90;;;;;;5033470;28;20190;-72
2021/08/07 06:03:58;;;;;;;0.97;0.60;;;17.70;99.90;;;;;;5020222;28;20203;-74
2021/08/07 06:06:23;;;;;;;0.70;0.50;;;17.70;99.90;;;;;;5023876;28;20207;-74
2021/08/07 06:08:49;;;;;;;1.00;0.63;;;17.70;99.90;;;;;;5015823;28;20206;-73
2021/08/07 06:11:14;;;;;;;0.70;0.60;;;17.70;99.90;;;;;;5033970;28;20203;-74
2021/08/07 06:13:40;;;;;;;0.80;0.60;;;17.80;99.90;;;;;;5026490;28;20172;-74
2021/08/07 06:16:06;;;;;;;0.70;0.53;;;17.80;99.90;;;;;;5018618;28;20204;-74
2021/08/07 06:18:31;;;;;;;0.90;0.70;;;17.80;99.90;;;;;;5014979;28;20267;-73
2021/08/07 06:20:57;;;;;;;0.80;0.70;;;17.80;99.90;;;;;;5014773;28;20183;-74
2021/08/07 06:23:22;;;;;;;0.70;0.50;;;17.90;99.90;;;;;;5034141;28;20180;-74
2021/08/07 06:25:48;;;;;;;0.70;0.60;;;17.90;99.90;;;;;;5029676;28;20622;-74
2021/08/07 06:28:13;;;;;;;0.70;0.57;;;18.00;99.90;;;;;;5028004;28;20172;-72
2021/08/07 06:30:43;;;;;;;1.07;0.97;;;18.10;99.90;;;;;;5015799;28;20211;-75
2021/08/07 06:33:09;;;;;;;1.70;1.10;;;18.10;99.90;;;;;;5007292;28;20664;-74
2021/08/07 06:35:35;;;;;;;0.80;0.70;;;18.20;99.90;;;;;;5024174;28;20983;-74
2021/08/07 06:38:00;;;;;;;0.80;0.60;;;18.20;99.90;;;;;;5013404;28;20445;-74
2021/08/07 06:40:27;;;;;;;1.33;0.60;;;18.20;99.90;;;;;;5021667;28;20176;-74
2021/08/07 06:42:52;;;;;;;0.73;0.57;;;18.20;99.90;;;;;;5013439;28;20214;-74
2021/08/07 06:45:18;;;;;;;0.80;0.70;;;18.20;99.90;;;;;;5008186;28;20922;-73
2021/08/07 06:47:43;;;;;;;0.70;0.50;;;18.30;99.90;;;;;;5016507;28;20259;-74
2021/08/07 06:50:09;;;;;;;0.80;0.63;;;18.40;99.90;;;;;;5022087;28;20175;-74
2021/08/07 06:52:35;;;;;;;0.70;0.60;;;18.50;99.90;;;;;;5018138;28;20573;-74
2021/08/07 06:55:01;;;;;;;1.13;0.70;;;18.50;99.90;;;;;;5023303;28;20443;-74
2021/08/07 06:57:27;;;;;;;0.80;0.60;;;18.60;99.90;;;;;;5026083;28;20633;-71
2021/08/07 06:59:52;;;;;;;0.80;0.63;;;18.60;99.90;;;;;;5013820;28;20433;-73
2021/08/07 07:02:19;;;;;;;0.70;0.60;;;18.60;99.90;;;;;;5022392;28;20171;-74
2021/08/07 07:04:45;;;;;;;1.20;1.10;;;18.70;99.90;;;;;;4998032;28;20196;-73
2021/08/07 07:07:11;;;;;;;0.70;0.60;;;18.70;99.90;;;;;;5014247;28;20430;-74
2021/08/07 07:09:37;;;;;;;0.70;0.50;;;18.90;99.90;;;;;;5029582;28;20953;-73
2021/08/07 07:12:02;;;;;;;1.10;0.87;;;19.00;99.90;;;;;;5031067;28;20591;-73
2021/08/07 07:14:28;;;;;;;1.13;1.03;;;19.10;99.90;;;;;;5020116;28;20576;-74
2021/08/07 07:16:54;;;;;;;0.80;0.50;;;19.20;99.90;;;;;;5024413;28;20234;-74
2021/08/07 07:19:20;;;;;;;1.73;1.40;;;19.30;99.90;;;;;;5019481;28;20675;-74
2021/08/07 07:21:46;;;;;;;0.80;0.60;;;19.30;99.90;;;;;;5023923;28;20540;-72
2021/08/07 07:24:12;;;;;;;0.80;0.63;;;19.40;99.90;;;;;;5014459;28;20786;-74
2021/08/07 07:26:37;;;;;;;0.70;0.50;;;19.40;99.90;;;;;;5014785;28;20196;-74
2021/08/07 07:29:03;;;;;;;0.70;0.70;;;19.50;99.90;;;;;;5021804;28;20175;-72
2021/08/07 07:31:29;;;;;;;0.80;0.60;;;19.50;99.90;;;;;;5018573;28;20199;-74
2021/08/07 07:33:54;;;;;;;1.00;0.70;;;19.60;99.90;;;;;;5032378;28;20176;-74
2021/08/07 07:36:20;;;;;;;1.20;0.90;;;19.70;99.90;;;;;;5022797;28;20201;-74
2021/08/07 07:38:46;;;;;;;0.90;0.70;;;19.70;99.90;;;;;;5016935;28;20526;-72
2021/08/07 07:41:12;;;;;;;1.07;0.70;;;19.70;99.90;;;;;;5013458;28;20255;-74
2021/08/07 07:43:38;;;;;;;1.00;0.90;;;19.80;99.90;;;;;;5014179;28;20184;-75
2021/08/07 07:46:05;;;;;;;0.80;0.60;;;19.90;99.90;;;;;;5021780;28;20832;-75
2021/08/07 07:48:31;;;;;;;0.80;0.80;;;20.10;99.90;;;;;;5016486;28;20434;-74
2021/08/07 07:50:56;;;;;;;0.70;0.50;;;20.10;99.90;;;;;;5027632;28;20434;-74
2021/08/07 07:53:22;;;;;;;0.80;0.63;;;20.20;99.90;;;;;;5028514;28;20198;-75
2021/08/07 07:55:48;;;;;;;0.83;0.67;;;20.30;99.90;;;;;;5030531;28;20202;-74
2021/08/07 07:58:13;;;;;;;0.70;0.50;;;20.50;99.90;;;;;;5024669;28;20179;-73
2021/08/07 08:00:39;;;;;;;0.70;0.60;;;20.60;99.90;;;;;;5024817;28;20323;-74
2021/08/07 08:03:05;;;;;;;0.77;0.53;;;20.70;99.90;;;;;;5012418;28;20234;-75
2021/08/07 08:05:30;;;;;;;0.80;0.60;;;20.80;99.90;;;;;;5025182;28;20203;-73
2021/08/07 08:07:56;;;;;;;3.40;2.00;;;20.90;99.90;;;;;;5014192;28;20183;-73
2021/08/07 08:10:22;;;;;;;0.90;0.70;;;21.00;99.90;;;;;;5018357;28;20230;-74
2021/08/07 08:12:47;;;;;;;0.80;0.60;;;21.10;99.90;;;;;;5025044;28;20719;-75
2021/08/07 08:15:13;;;;;;;0.80;0.60;;;21.20;99.90;;;;;;5015751;28;20257;-74
2021/08/07 08:17:39;;;;;;;0.80;0.60;;;21.40;99.90;;;;;;5029683;28;20171;-74
2021/08/07 08:20:07;;;;;;;0.80;0.70;;;21.60;99.90;;;;;;5025661;28;20441;-76
2021/08/07 08:22:33;;;;;;;1.00;0.83;;;21.80;99.90;;;;;;5014464;28;20636;-75
2021/08/07 08:24:59;;;;;;;1.93;1.17;;;22.10;99.90;;;;;;5014531;28;20458;-73
2021/08/07 08:27:25;;;;;;;0.90;0.70;;;22.20;99.90;;;;;;5026505;28;20807;-75
2021/08/07 08:29:51;;;;;;;0.77;0.60;;;22.30;99.90;;;;;;4996283;28;20431;-74
2021/08/07 08:32:16;;;;;;;0.80;0.70;;;22.40;99.90;;;;;;5025687;28;20184;-75
2021/08/07 08:34:42;;;;;;;1.73;1.27;;;22.40;99.90;;;;;;5010661;28;20211;-75
2021/08/07 08:37:08;;;;;;;0.70;0.60;;;22.30;99.90;;;;;;5030593;28;20188;-74
2021/08/07 08:39:34;;;;;;;0.80;0.60;;;22.40;99.90;;;;;;5031667;28;20172;-73
2021/08/07 08:42:00;;;;;;;0.80;0.70;;;22.30;99.90;;;;;;5004620;28;20508;-75
2021/08/07 08:44:26;;;;;;;0.70;0.63;;;22.20;99.90;;;;;;5010874;28;20211;-75
2021/08/07 08:46:52;;;;;;;0.77;0.53;;;22.00;99.90;;;;;;5032949;28;20508;-75
2021/08/07 08:49:20;;;;;;;0.70;0.50;;;21.90;99.90;;;;;;5010884;28;20175;-75
2021/08/07 08:51:47;;;;;;;0.77;0.63;;;21.90;99.90;;;;;;5008878;28;20434;-75
2021/08/07 08:54:15;;;;;;;0.80;0.60;;;21.90;99.90;;;;;;5031798;28;20525;-75
2021/08/07 08:56:40;;;;;;;0.70;0.50;;;21.90;99.90;;;;;;5033277;28;20469;-75
2021/08/07 08:59:07;;;;;;;0.80;0.60;;;21.90;99.90;;;;;;5013651;28;20473;-75
2021/08/07 09:01:33;;;;;;;1.20;0.80;;;22.00;99.90;;;;;;5031862;28;20182;-75
2021/08/07 09:03:58;;;;;;;0.87;0.80;;;22.00;99.90;;;;;;5032822;28;20446;-75
2021/08/07 09:06:24;;;;;;;0.80;0.60;;;22.00;99.90;;;;;;5030900;28;20203;-73
2021/08/07 09:09:02;;;;;;;0.80;0.70;;;22.00;99.90;;;;;;5015318;28;20179;-74
2021/08/07 09:11:28;;;;;;;0.80;0.73;;;22.00;99.90;;;;;;5014276;28;20218;-74
2021/08/07 09:14:18;;;;;;;0.90;0.70;;;21.90;99.90;;;;;;5014390;28;20415;-74
2021/08/07 09:16:59;;;;;;;0.70;0.60;;;22.00;99.90;;;;;;5021942;28;20167;-74
2021/08/07 09:19:25;;;;;;;0.90;0.80;;;22.10;99.90;;;;;;5019844;28;20416;-75
2021/08/07 09:22:10;;;;;;;0.80;0.60;;;22.10;99.90;;;;;;5036537;28;20430;-75
2021/08/07 09:25:03;;;;;;;0.70;0.50;;;22.10;99.90;;;;;;5020056;28;20453;-75
2021/08/07 09:27:37;;;;;;;1.10;0.80;;;22.30;99.90;;;;;;5037703;28;20437;-76
2021/08/07 09:30:25;;;;;;;0.70;0.50;;;22.50;99.90;;;;;;5037156;28;20413;-75
2021/08/07 09:32:50;;;;;;;0.77;0.50;;;22.70;99.90;;;;;;5001522;28;20939;-75
2021/08/07 09:35:24;;;;;;;1.73;0.60;;;22.90;99.90;;;;;;5017370;28;20427;-73
2021/08/07 09:38:11;;;;;;;0.97;0.60;;;23.10;99.90;;;;;;5020499;28;20218;-76
2021/08/07 09:41:06;;;;;;;0.80;0.60;;;23.00;99.90;;;;;;5017831;28;20430;-75
2021/08/07 09:43:46;;;;;;;0.80;0.70;;;23.30;99.90;;;;;;5028047;28;20418;-76
2021/08/07 09:46:19;;;;;;;0.80;0.60;;;23.40;99.90;;;;;;5036291;28;20540;-75
2021/08/07 09:48:50;;;;;;;0.70;0.53;;;23.30;99.90;;;;;;5035780;28;20444;-75
2021/08/07 09:51:31;;;;;;;0.80;0.60;;;23.40;99.90;;;;;;5036642;28;20398;-76
2021/08/07 09:54:12;;;;;;;0.80;0.70;;;23.40;99.90;;;;;;5035963;28;20417;-75
2021/08/07 09:56:54;;;;;;;1.33;1.20;;;23.30;99.90;;;;;;5035283;28;20434;-75
2021/08/07 09:59:22;;;;;;;0.80;0.60;;;23.40;99.90;;;;;;5037000;28;20406;-75
2021/08/07 10:01:50;;;;;;;1.77;1.30;;;23.40;99.90;;;;;;5020891;28;20427;-75
2021/08/07 10:04:18;;;;;;;0.70;0.50;;;23.30;99.90;;;;;;5017629;28;20411;-74
2021/08/07 10:06:45;;;;;;;0.80;0.50;;;23.50;99.90;;;;;;5029138;28;20921;-75
2021/08/07 10:09:11;;;;;;;0.90;0.80;;;23.80;99.90;;;;;;5011254;28;20422;-75
2021/08/07 10:11:38;;;;;;;0.80;0.57;;;23.70;99.90;;;;;;5020134;28;20481;-74
2021/08/07 10:14:05;;;;;;;0.70;0.50;;;23.60;99.90;;;;;;5002812;28;20944;-74
2021/08/07 10:16:32;;;;;;;0.70;0.57;;;23.60;99.90;;;;;;5016116;28;20455;-75
2021/08/07 10:18:59;;;;;;;0.97;0.77;;;23.50;99.90;;;;;;5016688;28;20402;-75
2021/08/07 10:21:25;;;;;;;0.70;0.50;;;23.70;99.90;;;;;;5025548;28;20785;-75
2021/08/07 10:23:53;;;;;;;0.80;0.60;;;23.70;99.90;;;;;;5033121;28;20532;-75
2021/08/07 10:26:20;;;;;;;0.80;0.60;;;23.80;99.90;;;;;;5025199;28;20540;-75
2021/08/07 10:28:53;;;;;;;0.73;0.60;;;23.60;99.90;;;;;;5034064;28;20428;-75
2021/08/07 10:31:24;;;;;;;0.80;0.60;;;23.40;99.90;;;;;;5020785;28;20423;-75
2021/08/07 10:33:52;;;;;;;0.80;0.60;;;23.10;99.90;;;;;;5015388;28;20959;-73
2021/08/07 10:36:19;;;;;;;1.10;1.00;;;22.90;99.90;;;;;;5021423;28;20514;-75
2021/08/07 10:38:46;;;;;;;1.10;0.60;;;22.70;99.90;;;;;;5022216;28;20545;-71
2021/08/07 10:41:13;;;;;;;0.87;0.63;;;22.50;99.90;;;;;;5034531;28;20449;-75
2021/08/07 10:43:39;;;;;;;1.57;0.60;;;22.40;99.90;;;;;;5032888;28;20407;-75
2021/08/07 10:46:07;;;;;;;0.80;0.53;;;22.20;99.90;;;;;;5015085;28;20522;-74
2021/08/07 10:48:42;;;;;;;0.70;0.50;;;22.00;99.90;;;;;;5014919;28;20407;-74
2021/08/07 10:51:19;;;;;;;0.80;0.60;;;22.00;99.90;;;;;;5023817;28;20457;-75
2021/08/07 10:54:29;;;;;;;0.80;0.70;;;21.70;99.90;;;;;;5030807;28;20430;-75
2021/08/07 10:56:55;;;;;;;0.70;0.50;;;21.40;99.90;;;;;;5031659;28;20441;-74
2021/08/07 10:59:26;;;;;;;0.80;0.60;;;21.10;99.90;;;;;;5034733;28;20452;-74
2021/08/07 11:02:17;;;;;;;0.80;0.67;;;21.00;99.90;;;;;;5033470;28;20465;-75
2021/08/07 11:04:49;;;;;;;1.00;0.70;;;21.00;99.90;;;;;;5015890;28;20455;-75
2021/08/07 11:07:20;;;;;;;0.70;0.50;;;21.00;99.90;;;;;;5027044;28;20606;-75
2021/08/07 11:10:01;;;;;;;0.70;0.60;;;21.10;99.90;;;;;;5031172;28;20464;-75
2021/08/07 11:12:27;;;;;;;1.00;0.90;;;21.40;99.90;;;;;;5014420;28;20422;-73
2021/08/07 11:14:55;;;;;;;1.10;0.60;;;21.60;99.90;;;;;;5014329;28;20831;-74
2021/08/07 11:17:20;;;;;;;4.40;0.77;;;21.80;99.90;;;;;;5013737;28;20430;-75
2021/08/07 11:20:06;;;;;;;0.80;0.50;;;22.00;99.90;;;;;;5011114;28;20430;-75
2021/08/07 11:22:31;;;;;;;0.80;0.60;;;22.20;99.90;;;;;;5000163;28;20187;-75
2021/08/07 11:25:07;;;;;;;0.70;0.50;;;22.60;99.90;;;;;;5015624;28;20454;-74
2021/08/07 11:30:22;;;;;;;0.83;0.77;;;23.30;99.90;;;;;;5022188;28;20438;-74
2021/08/07 11:32:56;;;;;;;0.80;0.60;;;23.80;99.90;;;;;;4999350;28;20460;-74
2021/08/07 11:35:31;;;;;;;0.80;0.60;;;24.40;99.90;;;;;;5013787;28;20861;-74
2021/08/07 11:38:06;;;;;;;0.90;0.60;;;25.00;99.90;;;;;;5019453;28;20475;-74
2021/08/07 11:41:00;;;;;;;0.80;0.60;;;25.60;99.90;;;;;;5019940;28;20766;-74
2021/08/07 11:43:26;;;;;;;0.80;0.60;;;26.20;99.90;;;;;;5013378;28;20433;-75
2021/08/07 11:45:54;;;;;;;0.80;0.70;;;26.80;99.90;;;;;;5014330;28;20469;-74
2021/08/07 11:48:29;;;;;;;1.10;0.60;;;27.30;99.90;;;;;;5014276;28;20172;-75
2021/08/07 11:50:58;;;;;;;0.80;0.50;;;27.40;99.90;;;;;;5028484;28;20428;-76
2021/08/07 11:53:25;;;;;;;1.00;0.60;;;27.90;99.90;;;;;;5028048;28;20832;-75
2021/08/07 11:56:05;;;;;;;0.80;0.60;;;28.20;99.90;;;;;;5005612;28;20466;-76
2021/08/07 11:58:32;;;;;;;0.80;0.60;;;28.40;99.90;;;;;;5013816;28;20447;-76
2021/08/07 12:01:02;;;;;;;0.90;0.70;;;28.60;99.90;;;;;;4998123;28;20815;-75
2021/08/07 12:03:40;;;;;;;0.80;0.50;;;28.90;99.90;;;;;;5030581;28;20537;-76
2021/08/07 12:06:06;;;;;;;0.80;0.60;;;29.50;99.90;;;;;;5022135;28;20458;-75
2021/08/07 12:08:33;;;;;;;1.13;1.03;;;29.60;99.90;;;;;;5021690;28;20480;-76
2021/08/07 12:11:04;;;;;;;0.80;0.63;;;29.90;99.90;;;;;;5012334;28;20209;-76
2021/08/07 12:13:35;;;;;;;0.80;0.60;;;30.10;94.70;;;;;;5014203;28;20431;-76
2021/08/07 12:16:07;;;;;;;0.80;0.60;;;30.30;97.50;;;;;;5030451;28;20469;-76
2021/08/07 12:18:41;;;;;;;0.80;0.60;;;29.50;90.20;;;;;;5032396;28;20437;-75
2021/08/07 12:21:09;;;;;;;0.97;0.70;;;29.30;91.50;;;;;;5014994;28;20458;-75
2021/08/07 12:23:42;;;;;;;0.80;0.60;;;29.10;90.90;;;;;;5014826;28;20505;-76
2021/08/07 12:26:09;;;;;;;0.80;0.60;;;29.00;91.40;;;;;;5003592;28;20480;-75
2021/08/07 12:28:35;;;;;;;0.80;0.50;;;28.40;92.10;;;;;;5021250;28;20520;-74
2021/08/07 12:31:02;;;;;;;0.80;0.50;;;27.90;93.50;;;;;;5023545;28;20237;-74
2021/08/07 12:33:30;;;;;;;1.97;1.13;;;27.50;93.90;;;;;;5029737;28;20179;-74
2021/08/07 12:35:56;;;;;;;0.90;0.70;;;27.50;97.00;;;;;;5016634;28;20952;-74
2021/08/07 12:38:27;;;;;;;0.80;0.50;;;27.50;94.30;;;;;;5013866;28;20430;-74
2021/08/07 12:41:02;;;;;;;1.27;0.80;;;27.40;95.10;;;;;;5018385;28;20176;-75
2021/08/07 12:43:32;;;;;;;0.80;0.60;;;27.60;93.30;;;;;;5002040;28;20546;-74
2021/08/07 12:46:03;;;;;;;0.80;0.60;;;27.60;92.70;;;;;;5013603;28;20466;-75
2021/08/07 12:48:50;;;;;;;0.80;0.60;;;27.60;94.70;;;;;;5033841;28;20959;-75
2021/08/07 12:51:21;;;;;;;0.80;0.60;;;27.10;92.80;;;;;;5021109;28;20427;-75
2021/08/07 12:53:47;;;;;;;0.90;0.70;;;27.30;95.30;;;;;;5027026;28;20450;-75
2021/08/07 12:56:14;;;;;;;0.80;0.57;;;27.20;95.30;;;;;;5029341;28;20539;-75